createdAt,value
2023-05-05T00:00:59.573Z,62.35351563
2023-05-05T00:02:01.180Z,62.24975586
2023-05-05T00:03:01.793Z,62.15209961
2023-05-05T00:04:02.865Z,62.15209961
2023-05-05T00:05:04.353Z,62.15209961
2023-05-05T00:06:05.814Z,62.35351563
2023-05-05T00:07:07.223Z,62.45117188
2023-05-05T00:08:08.556Z,62.45117188
2023-05-05T00:09:09.096Z,62.45117188
2023-05-05T00:10:10.596Z,62.35351563
2023-05-05T00:11:12.083Z,62.55493164
2023-05-05T00:12:43.564Z,62.35351563
2023-05-05T00:13:45.084Z,62.24975586
2023-05-05T00:14:46.635Z,62.24975586
2023-05-05T00:15:47.851Z,62.45117188
2023-05-05T00:16:49.480Z,62.75634766
2023-05-05T00:17:50.381Z,62.95776367
2023-05-05T00:18:51.797Z,62.75634766
2023-05-05T00:19:52.822Z,62.45117188
2023-05-05T00:20:54.848Z,61.54785156
2023-05-05T00:21:56.658Z,61.13891602
2023-05-05T00:22:57.579Z,61.13891602
2023-05-05T00:23:58.567Z,61.64550781
2023-05-05T00:24:59.573Z,61.84692383
2023-05-05T00:26:00.531Z,61.54785156
2023-05-05T00:27:01.029Z,61.04125977
2023-05-05T00:28:01.482Z,61.04125977
2023-05-05T00:29:03.609Z,60.83984375
2023-05-05T00:30:04.126Z,61.24267578
2023-05-05T00:31:05.343Z,61.27319336
2023-05-05T00:32:06.614Z,61.16943359
2023-05-05T00:33:07.090Z,60.96801758
2023-05-05T00:34:08.048Z,61.13891602
2023-05-05T00:35:08.581Z,61.37084961
2023-05-05T00:36:09.835Z,60.6628418
2023-05-05T00:37:11.437Z,60.76660156
2023-05-05T00:38:43.113Z,60.87036133
2023-05-05T00:39:43.888Z,60.6628418
2023-05-05T00:40:45.301Z,60.76660156
2023-05-05T00:41:46.348Z,60.96801758
2023-05-05T00:42:47.375Z,60.76660156
2023-05-05T00:43:48.358Z,61.07177734
2023-05-05T00:44:49.829Z,61.37084961
2023-05-05T00:45:51.315Z,61.27319336
2023-05-05T00:46:52.672Z,61.27319336
2023-05-05T00:47:53.234Z,61.27319336
2023-05-05T00:48:54.369Z,60.96801758
2023-05-05T00:49:55.804Z,60.87036133
2023-05-05T00:50:56.807Z,60.96801758
2023-05-05T00:51:57.452Z,61.47460938
2023-05-05T00:52:57.975Z,61.37084961
2023-05-05T00:53:58.425Z,61.67602539
2023-05-05T00:54:59.906Z,61.67602539
2023-05-05T00:56:01.294Z,61.87744141
2023-05-05T00:57:02.495Z,62.18261719
2023-05-05T00:58:03.958Z,62.3840332
2023-05-05T00:59:05.428Z,62.48168945
2023-05-05T01:00:06.870Z,62.3840332
2023-05-05T01:01:07.730Z,62.28027344
2023-05-05T01:02:08.120Z,62.04833984
2023-05-05T01:03:09.415Z,62.15209961
2023-05-05T01:04:10.323Z,62.15209961
2023-05-05T01:05:11.776Z,62.15209961
2023-05-05T01:06:43.278Z,61.4440918
2023-05-05T01:07:44.158Z,61.04125977
2023-05-05T01:08:45.439Z,61.27319336
2023-05-05T01:09:46.816Z,61.87744141
2023-05-05T01:10:47.879Z,62.3840332
2023-05-05T01:11:49.300Z,62.48168945
2023-05-05T01:12:50.632Z,62.28027344
2023-05-05T01:13:51.157Z,62.28027344
2023-05-05T01:14:52.349Z,61.77368164
2023-05-05T01:15:53.694Z,61.67602539
2023-05-05T01:16:55.081Z,61.67602539
2023-05-05T01:17:56.665Z,61.97509766
2023-05-05T01:18:57.318Z,61.77368164
2023-05-05T01:19:58.299Z,61.67602539
2023-05-05T01:20:59.644Z,61.67602539
2023-05-05T01:22:00.194Z,61.67602539
2023-05-05T01:23:01.351Z,61.67602539
2023-05-05T01:24:03.063Z,61.77368164
2023-05-05T01:25:04.582Z,61.87744141
2023-05-05T01:26:06.092Z,62.07885742
2023-05-05T01:27:06.557Z,61.87744141
2023-05-05T01:28:07.813Z,61.97509766
2023-05-05T01:29:08.868Z,61.67602539
2023-05-05T01:30:10.216Z,61.67602539
2023-05-05T01:31:11.162Z,62.28027344
2023-05-05T01:32:42.896Z,61.67602539
2023-05-05T01:33:43.491Z,61.57226563
2023-05-05T01:34:44.079Z,61.57226563
2023-05-05T01:35:45.359Z,61.77368164
2023-05-05T01:36:46.955Z,61.57226563
2023-05-05T01:37:48.063Z,61.77368164
2023-05-05T01:38:48.582Z,61.67602539
2023-05-05T01:39:49.831Z,61.4440918
2023-05-05T01:40:51.080Z,61.34643555
2023-05-05T01:41:51.661Z,61.34643555
2023-05-05T01:42:52.831Z,61.24267578
2023-05-05T01:43:53.889Z,61.34643555
2023-05-05T01:44:55.467Z,61.54785156
2023-05-05T01:45:56.858Z,61.74926758
2023-05-05T01:46:58.064Z,61.84692383
2023-05-05T01:47:58.616Z,62.24975586
2023-05-05T01:48:59.848Z,62.55493164
2023-05-05T01:50:01.105Z,62.98828125
2023-05-05T01:51:02.570Z,63.18969727
2023-05-05T01:52:03.325Z,63.28735352
2023-05-05T01:53:04.614Z,63.39111328
2023-05-05T01:54:06.077Z,63.18969727
2023-05-05T01:55:07.168Z,63.18969727
2023-05-05T01:56:08.087Z,63.0859375
2023-05-05T01:57:08.634Z,63.39111328
2023-05-05T01:58:09.885Z,63.5925293
2023-05-05T01:59:11.110Z,62.98828125
2023-05-05T02:00:42.347Z,62.98828125
2023-05-05T02:01:43.729Z,62.98828125
2023-05-05T02:02:45.200Z,63.18969727
2023-05-05T02:03:46.152Z,63.18969727
2023-05-05T02:04:47.443Z,63.28735352
2023-05-05T02:05:48.849Z,63.0859375
2023-05-05T02:06:49.984Z,63.28735352
2023-05-05T02:07:51.106Z,62.98828125
2023-05-05T02:08:52.628Z,63.0859375
2023-05-05T02:09:53.354Z,63.0859375
2023-05-05T02:10:54.872Z,63.0859375
2023-05-05T02:11:56.389Z,62.88452148
2023-05-05T02:12:57.665Z,62.88452148
2023-05-05T02:13:59.123Z,62.88452148
2023-05-05T02:14:59.555Z,63.0859375
2023-05-05T02:16:00.988Z,63.39111328
2023-05-05T02:17:02.123Z,63.69628906
2023-05-05T02:18:02.652Z,63.69628906
2023-05-05T02:19:03.935Z,63.5925293
2023-05-05T02:20:05.249Z,63.49487305
2023-05-05T02:21:06.707Z,63.28735352
2023-05-05T02:22:07.123Z,63.28735352
2023-05-05T02:23:08.396Z,63.39111328
2023-05-05T02:24:09.837Z,63.39111328
2023-05-05T02:25:11.574Z,63.28735352
2023-05-05T02:26:43.939Z,63.39111328
2023-05-05T02:27:45.102Z,63.39111328
2023-05-05T02:28:46.623Z,63.69628906
2023-05-05T02:29:47.280Z,63.92822266
2023-05-05T02:30:48.389Z,63.69628906
2023-05-05T02:31:50.080Z,63.89770508
2023-05-05T02:32:51.082Z,63.99536133
2023-05-05T02:33:51.700Z,63.69628906
2023-05-05T02:34:52.800Z,63.49487305
2023-05-05T02:35:53.922Z,63.49487305
2023-05-05T02:36:55.357Z,63.39111328
2023-05-05T02:37:56.962Z,63.28735352
2023-05-05T02:38:58.104Z,62.88452148
2023-05-05T02:39:58.689Z,62.98828125
2023-05-05T02:41:00.111Z,62.88452148
2023-05-05T02:42:01.483Z,62.88452148
2023-05-05T02:43:02.608Z,62.68310547
2023-05-05T02:44:04.093Z,62.58544922
2023-05-05T02:45:05.104Z,62.3840332
2023-05-05T02:46:06.725Z,62.18261719
2023-05-05T02:47:08.227Z,62.20703125
2023-05-05T02:48:09.655Z,62.6159668
2023-05-05T02:49:10.561Z,62.91503906
2023-05-05T02:50:43.075Z,63.01879883
2023-05-05T02:51:44.748Z,63.22021484
2023-05-05T02:52:46.157Z,63.11645508
2023-05-05T02:53:47.596Z,63.01879883
2023-05-05T02:54:48.226Z,63.01879883
2023-05-05T02:55:49.581Z,63.01879883
2023-05-05T02:56:50.139Z,63.01879883
2023-05-05T02:57:51.599Z,63.11645508
2023-05-05T02:58:52.224Z,63.11645508
2023-05-05T02:59:53.621Z,63.11645508
2023-05-05T03:00:54.908Z,63.22021484
2023-05-05T03:01:56.464Z,63.11645508
2023-05-05T03:02:57.824Z,63.11645508
2023-05-05T03:03:59.167Z,63.22021484
2023-05-05T03:04:59.741Z,63.42163086
2023-05-05T03:06:00.908Z,63.62304688
2023-05-05T03:07:02.378Z,63.51928711
2023-05-05T03:08:03.617Z,63.42163086
2023-05-05T03:09:05.129Z,63.42163086
2023-05-05T03:10:06.035Z,63.62304688
2023-05-05T03:11:06.887Z,63.82446289
2023-05-05T03:12:08.344Z,63.75732422
2023-05-05T03:13:11.220Z,63.95874023
2023-05-05T03:14:41.931Z,63.75732422
2023-05-05T03:15:43.744Z,63.95874023
2023-05-05T03:16:44.918Z,64.16015625
2023-05-05T03:17:46.080Z,64.16015625
2023-05-05T03:18:47.182Z,63.95874023
2023-05-05T03:19:47.661Z,63.95874023
2023-05-05T03:20:49.116Z,63.95874023
2023-05-05T03:21:50.613Z,64.16015625
2023-05-05T03:22:51.610Z,63.85498047
2023-05-05T03:23:53.163Z,64.08691406
2023-05-05T03:24:54.688Z,64.19067383
2023-05-05T03:25:55.376Z,64.19067383
2023-05-05T03:26:56.880Z,64.08691406
2023-05-05T03:27:57.482Z,64.08691406
2023-05-05T03:28:59.625Z,64.16015625
2023-05-05T03:30:00.180Z,64.16015625
2023-05-05T03:31:00.651Z,64.16015625
2023-05-05T03:32:02.162Z,64.05639648
2023-05-05T03:33:02.594Z,64.16015625
2023-05-05T03:34:03.753Z,63.95874023
2023-05-05T03:35:04.201Z,63.95874023
2023-05-05T03:36:05.383Z,64.16015625
2023-05-05T03:37:06.861Z,64.28833008
2023-05-05T03:38:08.407Z,64.08691406
2023-05-05T03:39:09.720Z,64.19067383
2023-05-05T03:40:44.506Z,64.28833008
2023-05-05T03:41:42.110Z,64.48974609
2023-05-05T03:42:42.621Z,64.59350586
2023-05-05T03:43:43.851Z,64.59350586
2023-05-05T03:44:45.108Z,64.48974609
2023-05-05T03:45:46.612Z,63.98925781
2023-05-05T03:46:47.604Z,63.68408203
2023-05-05T03:47:48.161Z,63.68408203
2023-05-05T03:48:49.390Z,63.88549805
2023-05-05T03:49:50.582Z,63.78173828
2023-05-05T03:50:51.772Z,63.98925781
2023-05-05T03:51:53.105Z,64.19067383
2023-05-05T03:52:54.403Z,64.08691406
2023-05-05T03:53:55.578Z,64.08691406
2023-05-05T03:54:56.681Z,64.19067383
2023-05-05T03:55:57.227Z,64.28833008
2023-05-05T03:56:58.432Z,64.19067383
2023-05-05T03:57:59.850Z,64.28833008
2023-05-05T03:59:00.312Z,64.48974609
2023-05-05T04:00:01.580Z,64.28833008
2023-05-05T04:01:02.183Z,64.28833008
2023-05-05T04:02:04.178Z,64.05639648
2023-05-05T04:03:05.764Z,63.95874023
2023-05-05T04:04:07.139Z,64.05639648
2023-05-05T04:05:08.607Z,64.08691406
2023-05-05T04:06:09.113Z,63.95874023
2023-05-05T04:07:40.703Z,63.75732422
2023-05-05T04:08:41.926Z,63.95874023
2023-05-05T04:09:43.703Z,64.28833008
2023-05-05T04:10:45.100Z,64.39208984
2023-05-05T04:11:46.694Z,64.69726563
2023-05-05T04:12:47.160Z,64.48974609
2023-05-05T04:13:48.453Z,64.39208984
2023-05-05T04:14:49.863Z,64.39208984
2023-05-05T04:15:51.188Z,64.39208984
2023-05-05T04:16:51.637Z,64.39208984
2023-05-05T04:17:52.973Z,64.39208984
2023-05-05T04:18:53.456Z,64.39208984
2023-05-05T04:19:54.674Z,64.59350586
2023-05-05T04:20:56.089Z,64.48974609
2023-05-05T04:21:57.174Z,64.48974609
2023-05-05T04:22:57.659Z,64.59350586
2023-05-05T04:23:58.897Z,64.39208984
2023-05-05T04:25:00.205Z,64.28833008
2023-05-05T04:26:00.634Z,64.19067383
2023-05-05T04:27:01.092Z,64.48974609
2023-05-05T04:28:01.731Z,64.59350586
2023-05-05T04:29:03.131Z,64.69726563
2023-05-05T04:30:04.609Z,64.39208984
2023-05-05T04:31:05.303Z,64.39208984
2023-05-05T04:32:07.137Z,64.48974609
2023-05-05T04:33:08.654Z,64.79492188
2023-05-05T04:34:40.419Z,64.79492188
2023-05-05T04:35:41.633Z,64.89868164
2023-05-05T04:36:43.114Z,64.89868164
2023-05-05T04:37:43.886Z,65.10009766
2023-05-05T04:38:45.556Z,64.99633789
2023-05-05T04:39:46.885Z,65.10009766
2023-05-05T04:40:48.150Z,65.10009766
2023-05-05T04:41:49.588Z,64.99633789
2023-05-05T04:42:50.869Z,65.39916992
2023-05-05T04:43:52.167Z,65.80810547
2023-05-05T04:44:53.609Z,65.7043457
2023-05-05T04:45:55.267Z,65.7043457
2023-05-05T04:46:55.845Z,65.60668945
2023-05-05T04:47:57.008Z,65.39916992
2023-05-05T04:48:57.930Z,65.36865234
2023-05-05T04:49:59.138Z,65.36865234
2023-05-05T04:50:59.735Z,65.36865234
2023-05-05T04:52:01.113Z,65.06958008
2023-05-05T04:53:02.494Z,65.47241211
2023-05-05T04:54:03.923Z,65.57006836
2023-05-05T04:55:05.163Z,65.36865234
2023-05-05T04:56:06.613Z,65.16723633
2023-05-05T04:57:07.099Z,65.06958008
2023-05-05T04:58:08.462Z,64.56298828
2023-05-05T04:59:39.790Z,64.45922852
2023-05-05T05:00:40.997Z,64.36157227
2023-05-05T05:01:42.196Z,64.45922852
2023-05-05T05:02:43.759Z,64.66674805
2023-05-05T05:03:44.278Z,65.06958008
2023-05-05T05:04:45.342Z,65.06958008
2023-05-05T05:05:46.393Z,64.7644043
2023-05-05T05:06:47.613Z,64.96582031
2023-05-05T05:07:48.140Z,64.7644043
2023-05-05T05:08:49.357Z,64.96582031
2023-05-05T05:09:50.347Z,65.27099609
2023-05-05T05:10:51.394Z,65.16723633
2023-05-05T05:11:52.941Z,65.16723633
2023-05-05T05:12:54.509Z,65.27099609
2023-05-05T05:13:55.647Z,65.27099609
2023-05-05T05:14:56.258Z,65.06958008
2023-05-05T05:15:58.196Z,65.16723633
2023-05-05T05:16:58.670Z,65.16723633
2023-05-05T05:17:59.951Z,65.16723633
2023-05-05T05:19:01.792Z,65.16723633
2023-05-05T05:20:02.388Z,65.16723633
2023-05-05T05:21:03.670Z,65.57006836
2023-05-05T05:22:05.135Z,65.77758789
2023-05-05T05:23:05.687Z,65.57006836
2023-05-05T05:24:06.946Z,65.47241211
2023-05-05T05:25:08.106Z,65.57006836
2023-05-05T05:26:39.942Z,65.53955078
2023-05-05T05:27:41.118Z,65.44189453
2023-05-05T05:28:42.626Z,65.57006836
2023-05-05T05:29:43.081Z,65.13671875
2023-05-05T05:30:44.360Z,65.24047852
2023-05-05T05:31:45.368Z,64.73388672
2023-05-05T05:32:46.554Z,64.73388672
2023-05-05T05:33:47.965Z,64.93530273
2023-05-05T05:34:49.448Z,64.83764648
2023-05-05T05:35:50.372Z,64.5324707
2023-05-05T05:36:51.606Z,64.5324707
2023-05-05T05:37:53.136Z,64.63623047
2023-05-05T05:38:53.622Z,64.83764648
2023-05-05T05:39:54.931Z,64.5324707
2023-05-05T05:40:56.463Z,64.73388672
2023-05-05T05:41:57.860Z,64.73388672
2023-05-05T05:42:59.651Z,64.83764648
2023-05-05T05:44:00.171Z,64.93530273
2023-05-05T05:45:01.413Z,64.93530273
2023-05-05T05:46:02.675Z,64.83764648
2023-05-05T05:47:03.660Z,64.42871094
2023-05-05T05:48:04.178Z,64.83764648
2023-05-05T05:49:05.376Z,64.83764648
2023-05-05T05:50:06.068Z,64.63623047
2023-05-05T05:51:07.108Z,64.73388672
2023-05-05T05:52:07.620Z,64.93530273
2023-05-05T05:53:39.218Z,64.83764648
2023-05-05T05:54:40.400Z,64.73388672
2023-05-05T05:55:41.916Z,64.70336914
2023-05-05T05:56:42.841Z,65.00854492
2023-05-05T05:57:44.100Z,65.30761719
2023-05-05T05:58:45.637Z,65.20996094
2023-05-05T05:59:46.295Z,65.20996094
2023-05-05T06:00:47.481Z,65.10620117
2023-05-05T06:01:48.921Z,64.80712891
2023-05-05T06:02:50.193Z,64.30053711
2023-05-05T06:03:51.521Z,63.99536133
2023-05-05T06:04:52.991Z,63.99536133
2023-05-05T06:05:54.290Z,63.79394531
2023-05-05T06:06:55.622Z,64.09912109
2023-05-05T06:07:56.635Z,64.27001953
2023-05-05T06:08:57.097Z,63.99536133
2023-05-05T06:09:59.282Z,63.56201172
2023-05-05T06:10:59.003Z,63.66577148
2023-05-05T06:12:00.313Z,63.66577148
2023-05-05T06:13:01.664Z,63.66577148
2023-05-05T06:14:02.419Z,63.46435547
2023-05-05T06:15:03.951Z,62.75634766
2023-05-05T06:16:05.526Z,62.65258789
2023-05-05T06:17:06.766Z,62.75634766
2023-05-05T06:18:08.149Z,63.46435547
2023-05-05T06:19:38.886Z,63.56201172
2023-05-05T06:20:40.438Z,63.8671875
2023-05-05T06:21:42.158Z,63.46435547
2023-05-05T06:22:43.716Z,63.3605957
2023-05-05T06:23:44.908Z,63.06152344
2023-05-05T06:24:46.332Z,63.3605957
2023-05-05T06:25:47.418Z,63.76342773
2023-05-05T06:26:49.000Z,63.66577148
2023-05-05T06:27:50.118Z,63.56201172
2023-05-05T06:28:51.109Z,63.26293945
2023-05-05T06:29:51.562Z,63.06152344
2023-05-05T06:30:52.895Z,62.85400391
2023-05-05T06:31:54.455Z,62.95776367
2023-05-05T06:32:56.705Z,62.95776367
2023-05-05T06:33:57.221Z,62.95776367
2023-05-05T06:34:58.465Z,62.72583008
2023-05-05T06:35:59.877Z,62.92724609
2023-05-05T06:37:01.240Z,62.92724609
2023-05-05T06:38:02.619Z,62.82958984
2023-05-05T06:39:03.131Z,63.03100586
2023-05-05T06:40:03.616Z,63.03100586
2023-05-05T06:41:04.906Z,62.92724609
2023-05-05T06:42:07.188Z,63.63525391
2023-05-05T06:43:38.914Z,63.03100586
2023-05-05T06:44:40.118Z,63.03100586
2023-05-05T06:45:43.622Z,63.63525391
2023-05-05T06:46:41.683Z,63.2019043
2023-05-05T06:47:43.065Z,63.40332031
2023-05-05T06:48:44.796Z,63.09814453
2023-05-05T06:49:46.130Z,62.59765625
2023-05-05T06:50:47.114Z,62.59765625
2023-05-05T06:51:47.570Z,62.19482422
2023-05-05T06:52:48.973Z,62.09106445
2023-05-05T06:53:50.596Z,62.39624023
2023-05-05T06:54:52.137Z,61.9934082
2023-05-05T06:55:53.130Z,62.19482422
2023-05-05T06:56:54.121Z,62.49389648
2023-05-05T06:57:55.425Z,62.79907227
2023-05-05T06:58:56.659Z,62.39624023
2023-05-05T06:59:57.525Z,62.29248047
2023-05-05T07:00:58.903Z,61.9934082
2023-05-05T07:01:59.877Z,61.68823242
2023-05-05T07:03:01.405Z,61.25488281
2023-05-05T07:04:02.826Z,61.25488281
2023-05-05T07:05:03.274Z,61.25488281
2023-05-05T07:06:04.633Z,61.15722656
2023-05-05T07:07:06.145Z,61.35864258
2023-05-05T07:08:06.593Z,61.45629883
2023-05-05T07:09:38.893Z,61.56005859
2023-05-05T07:10:40.226Z,61.85913086
2023-05-05T07:11:40.766Z,62.06054688
2023-05-05T07:12:41.859Z,62.06054688
2023-05-05T07:13:43.013Z,62.16430664
2023-05-05T07:14:44.685Z,62.03613281
2023-05-05T07:15:46.207Z,62.64038086
2023-05-05T07:16:46.797Z,62.64038086
2023-05-05T07:17:48.051Z,62.53662109
2023-05-05T07:18:48.614Z,62.43896484
2023-05-05T07:19:49.642Z,62.53662109
2023-05-05T07:20:50.204Z,62.33520508
2023-05-05T07:21:51.403Z,62.13378906
2023-05-05T07:22:52.619Z,62.23754883
2023-05-05T07:23:53.947Z,61.90185547
2023-05-05T07:24:55.257Z,61.19995117
2023-05-05T07:25:56.640Z,60.99853516
2023-05-05T07:26:57.179Z,60.89477539
2023-05-05T07:27:58.353Z,60.79711914
2023-05-05T07:28:59.741Z,59.99145508
2023-05-05T07:30:00.722Z,59.88769531
2023-05-05T07:31:01.302Z,59.79003906
2023-05-05T07:32:02.489Z,59.99145508
2023-05-05T07:33:03.660Z,58.4777832
2023-05-05T07:34:04.655Z,57.07397461
2023-05-05T07:35:05.644Z,57.07397461
2023-05-05T07:36:07.136Z,57.07397461
2023-05-05T07:37:38.063Z,56.06689453
2023-05-05T07:38:39.398Z,55.6640625
2023-05-05T07:39:40.686Z,55.96313477
2023-05-05T07:40:42.304Z,55.1574707
2023-05-05T07:41:43.661Z,55.56030273
2023-05-05T07:42:44.179Z,55.76171875
2023-05-05T07:43:45.365Z,55.43212891
2023-05-05T07:44:46.883Z,55.33447266
2023-05-05T07:45:48.186Z,55.43212891
2023-05-05T07:46:48.695Z,55.23071289
2023-05-05T07:47:50.076Z,54.02832031
2023-05-05T07:48:51.425Z,54.32739258
2023-05-05T07:49:52.651Z,54.63256836
2023-05-05T07:50:55.247Z,54.63256836
2023-05-05T07:51:55.712Z,54.63256836
2023-05-05T07:53:06.246Z,54.52880859
2023-05-05T07:53:58.454Z,54.8034668
2023-05-05T07:54:58.934Z,54.50439453
2023-05-05T07:56:00.096Z,53.90014648
2023-05-05T07:57:01.426Z,53.3996582
2023-05-05T07:58:02.911Z,52.39257813
2023-05-05T07:59:05.143Z,52.08740234
2023-05-05T08:00:05.665Z,51.48925781
2023-05-05T08:01:06.767Z,52.28881836
2023-05-05T08:02:38.732Z,52.28881836
2023-05-05T08:03:40.240Z,52.19116211
2023-05-05T08:04:41.588Z,52.08740234
2023-05-05T08:05:42.624Z,51.78833008
2023-05-05T08:06:44.312Z,52.08740234
2023-05-05T08:07:44.904Z,51.98974609
2023-05-05T08:08:45.606Z,52.08740234
2023-05-05T08:09:47.070Z,52.49023438
2023-05-05T08:10:48.172Z,52.28881836
2023-05-05T08:11:49.646Z,52.39257813
2023-05-05T08:12:50.340Z,51.78833008
2023-05-05T08:13:51.494Z,51.2878418
2023-05-05T08:14:53.031Z,51.18408203
2023-05-05T08:15:54.693Z,51.26342773
2023-05-05T08:16:55.440Z,51.08642578
2023-05-05T08:17:56.523Z,51.58691406
2023-05-05T08:18:57.952Z,51.58691406
2023-05-05T08:19:59.418Z,51.98974609
2023-05-05T08:21:01.657Z,52.89306641
2023-05-05T08:22:02.220Z,53.19824219
2023-05-05T08:23:02.618Z,53.09448242
2023-05-05T08:24:03.097Z,53.07006836
2023-05-05T08:25:03.590Z,52.46582031
2023-05-05T08:26:05.630Z,52.86865234
2023-05-05T08:27:06.582Z,52.36816406
2023-05-05T08:28:37.979Z,51.96533203
2023-05-05T08:29:39.434Z,51.66015625
2023-05-05T08:30:40.931Z,51.76391602
2023-05-05T08:31:42.507Z,51.96533203
2023-05-05T08:32:43.681Z,52.2644043
2023-05-05T08:33:44.236Z,52.77099609
2023-05-05T08:34:45.404Z,53.16772461
2023-05-05T08:35:46.439Z,52.64282227
2023-05-05T08:36:47.633Z,52.74047852
2023-05-05T08:37:48.972Z,52.54516602
2023-05-05T08:38:50.232Z,52.34375
2023-05-05T08:39:51.449Z,52.64282227
2023-05-05T08:40:52.063Z,52.74047852
2023-05-05T08:41:52.541Z,52.71606445
2023-05-05T08:42:53.911Z,53.02124023
2023-05-05T08:43:55.098Z,52.91748047
2023-05-05T08:44:58.330Z,52.91748047
2023-05-05T08:45:57.661Z,52.01416016
2023-05-05T08:46:59.212Z,52.11791992
2023-05-05T08:47:59.766Z,52.21557617
2023-05-05T08:49:01.186Z,52.51464844
2023-05-05T08:50:02.712Z,52.69165039
2023-05-05T08:51:05.687Z,52.89306641
2023-05-05T08:52:05.671Z,52.69165039
2023-05-05T08:53:37.421Z,52.69165039
2023-05-05T08:54:38.469Z,52.99682617
2023-05-05T08:55:39.991Z,52.29492188
2023-05-05T08:56:41.464Z,51.98974609
2023-05-05T08:57:42.685Z,52.59399414
2023-05-05T08:58:44.194Z,52.09350586
2023-05-05T08:59:44.771Z,52.01416016
2023-05-05T09:00:45.990Z,52.21557617
2023-05-05T09:01:47.427Z,52.41699219
2023-05-05T09:02:49.700Z,52.6184082
2023-05-05T09:03:51.017Z,52.71606445
2023-05-05T09:04:52.371Z,52.71606445
2023-05-05T09:05:53.497Z,52.71606445
2023-05-05T09:06:54.692Z,52.71606445
2023-05-05T09:07:56.187Z,53.11889648
2023-05-05T09:08:59.013Z,52.89306641
2023-05-05T09:09:58.679Z,52.79541016
2023-05-05T09:11:00.174Z,52.39257813
2023-05-05T09:12:01.657Z,52.39257813
2023-05-05T09:13:03.221Z,52.59399414
2023-05-05T09:14:03.825Z,52.39257813
2023-05-05T09:15:05.038Z,52.89306641
2023-05-05T09:16:37.514Z,52.99682617
2023-05-05T09:17:39.023Z,53.29589844
2023-05-05T09:18:40.522Z,54.1015625
2023-05-05T09:19:42.199Z,54.49829102
2023-05-05T09:20:43.749Z,54.17480469
2023-05-05T09:21:45.047Z,54.67529297
2023-05-05T09:22:45.706Z,54.17480469
2023-05-05T09:23:47.266Z,53.57055664
2023-05-05T09:24:48.533Z,53.36914063
2023-05-05T09:25:49.947Z,53.57055664
2023-05-05T09:26:51.620Z,54.07104492
2023-05-05T09:27:52.935Z,53.97338867
2023-05-05T09:28:54.576Z,54.07104492
2023-05-05T09:29:55.968Z,53.36914063
2023-05-05T09:30:57.102Z,53.47290039
2023-05-05T09:31:58.489Z,53.86962891
2023-05-05T09:32:59.975Z,54.27246094
2023-05-05T09:34:02.156Z,53.97338867
2023-05-05T09:35:03.899Z,53.86962891
2023-05-05T09:36:04.298Z,53.84521484
2023-05-05T09:37:05.702Z,52.36816406
2023-05-05T09:38:37.531Z,52.56958008
2023-05-05T09:39:38.943Z,52.86865234
2023-05-05T09:40:40.482Z,53.27148438
2023-05-05T09:41:41.933Z,52.86865234
2023-05-05T09:42:44.487Z,53.16772461
2023-05-05T09:43:45.920Z,54.65087891
2023-05-05T09:44:47.432Z,53.94897461
2023-05-05T09:45:49.049Z,53.84521484
2023-05-05T09:46:50.216Z,53.0456543
2023-05-05T09:47:50.722Z,52.77099609
2023-05-05T09:48:51.979Z,52.64282227
2023-05-05T09:49:53.500Z,52.34375
2023-05-05T09:50:55.031Z,52.54516602
2023-05-05T09:51:56.867Z,52.94189453
2023-05-05T09:52:58.285Z,54.34570313
2023-05-05T09:53:59.076Z,54.85229492
2023-05-05T09:54:59.639Z,55.24902344
2023-05-05T09:56:01.263Z,55.15136719
2023-05-05T09:57:01.686Z,53.14331055
2023-05-05T09:58:03.639Z,52.14233398
2023-05-05T09:59:05.763Z,52.04467773
2023-05-05T10:00:38.689Z,52.54516602
2023-05-05T10:01:40.797Z,52.34375
2023-05-05T10:02:42.251Z,52.23999023
2023-05-05T10:03:43.749Z,52.44140625
2023-05-05T10:04:45.249Z,52.84423828
2023-05-05T10:05:46.682Z,53.24707031
2023-05-05T10:06:48.020Z,53.24707031
2023-05-05T10:07:49.176Z,53.64379883
2023-05-05T10:08:49.829Z,53.74755859
2023-05-05T10:09:50.986Z,53.84521484
2023-05-05T10:10:52.518Z,53.44848633
2023-05-05T10:11:54.479Z,53.0456543
2023-05-05T10:12:55.820Z,53.22265625
2023-05-05T10:13:56.392Z,52.91748047
2023-05-05T10:14:58.191Z,51.81884766
2023-05-05T10:15:59.717Z,52.11791992
2023-05-05T10:17:01.274Z,52.11791992
2023-05-05T10:18:08.276Z,52.41699219
2023-05-05T10:19:03.262Z,52.71606445
2023-05-05T10:20:04.594Z,52.6184082
2023-05-05T10:21:37.024Z,51.98974609
2023-05-05T10:22:38.799Z,51.98974609
2023-05-05T10:23:39.677Z,52.09350586
2023-05-05T10:24:41.222Z,52.29492188
2023-05-05T10:25:41.797Z,52.56958008
2023-05-05T10:26:43.019Z,52.77099609
2023-05-05T10:27:44.637Z,52.16674805
2023-05-05T10:28:45.681Z,51.3671875
2023-05-05T10:29:47.231Z,51.66625977
2023-05-05T10:30:47.811Z,51.56860352
2023-05-05T10:31:48.943Z,51.73950195
2023-05-05T10:32:54.349Z,51.94091797
2023-05-05T10:33:51.465Z,51.6418457
2023-05-05T10:34:52.493Z,51.14135742
2023-05-05T10:35:54.218Z,51.44042969
2023-05-05T10:36:55.621Z,51.94091797
2023-05-05T10:37:56.728Z,52.36816406
2023-05-05T10:38:58.170Z,51.44042969
2023-05-05T10:39:58.687Z,51.6418457
2023-05-05T10:41:00.095Z,50.96435547
2023-05-05T10:42:01.562Z,51.46484375
2023-05-05T10:43:03.735Z,51.26953125
2023-05-05T10:44:04.774Z,51.3671875
2023-05-05T10:45:36.866Z,51.34277344
2023-05-05T10:46:38.700Z,51.84326172
2023-05-05T10:47:40.033Z,51.44042969
2023-05-05T10:48:41.599Z,51.24511719
2023-05-05T10:49:42.706Z,51.73950195
2023-05-05T10:50:44.176Z,50.43945313
2023-05-05T10:51:44.853Z,50.43945313
2023-05-05T10:52:45.980Z,50.74462891
2023-05-05T10:53:47.604Z,51.04370117
2023-05-05T10:54:48.699Z,50.64086914
2023-05-05T10:55:49.690Z,51.04370117
2023-05-05T10:56:51.244Z,50.93994141
2023-05-05T10:57:52.686Z,51.14135742
2023-05-05T10:58:59.672Z,50.93994141
2023-05-05T10:59:55.846Z,51.04370117
2023-05-05T11:00:56.408Z,51.14135742
2023-05-05T11:01:57.501Z,51.04370117
2023-05-05T11:02:59.172Z,51.14135742
2023-05-05T11:04:00.223Z,50.84228516
2023-05-05T11:05:01.822Z,51.14135742
2023-05-05T11:06:02.384Z,51.24511719
2023-05-05T11:07:03.481Z,51.73950195
2023-05-05T11:08:35.376Z,50.84228516
2023-05-05T11:09:36.578Z,51.22070313
2023-05-05T11:10:37.937Z,51.22070313
2023-05-05T11:11:39.663Z,51.22070313
2023-05-05T11:12:41.028Z,51.41601563
2023-05-05T11:13:42.485Z,52.52075195
2023-05-05T11:14:44.007Z,52.21557617
2023-05-05T11:15:45.428Z,52.02026367